Time;durP1;ratioP1;P1;durP2;ratioP2;P2;SDS_P1;SDS_P2;PMS_P1;PMS_P2;Temp;Humidity;BMP_temperature;BMP_pressure;BME280_temperature;BME280_humidity;BME280_pressure;Samples;Min_cycle;Max_cycle;Signal;HPM_P1;HPM_P2
2023/09/30 00:03:24;;;;;;;8.60;2.70;;;;;;;17.26;100.00;100584.28;12205261;19;20006;-80
2023/09/30 00:07:26;;;;;;;6.45;2.83;;;;;;;17.19;100.00;100590.13;12182056;19;20026;-79
2023/09/30 00:11:28;;;;;;;6.43;2.23;;;;;;;17.16;100.00;100587.84;12203297;19;20014;-81
2023/09/30 00:15:30;;;;;;;7.00;2.72;;;;;;;17.17;100.00;100597.06;12204916;19;20034;-80
2023/09/30 00:19:33;;;;;;;5.70;2.58;;;;;;;17.16;100.00;100603.72;12184490;19;20006;-81
2023/09/30 00:23:34;;;;;;;8.27;2.83;;;;;;;17.13;100.00;100621.81;12205966;19;20022;-81
2023/09/30 00:27:37;;;;;;;7.87;2.83;;;;;;;17.09;100.00;100629.06;12166443;19;20007;-80
2023/09/30 00:31:40;;;;;;;7.93;2.67;;;;;;;17.02;100.00;100617.34;12171279;19;20014;-81
2023/09/30 00:35:42;;;;;;;8.13;2.95;;;;;;;16.95;100.00;100620.38;12190582;19;20086;-80
2023/09/30 00:39:44;;;;;;;7.15;2.40;;;;;;;16.84;100.00;100638.16;12190877;19;20656;-81
2023/09/30 00:43:46;;;;;;;6.22;2.75;;;;;;;16.74;100.00;100647.25;12162953;19;20560;-81
2023/09/30 00:47:48;;;;;;;7.60;3.08;;;;;;;16.70;100.00;100635.00;12186631;19;20031;-81
2023/09/30 00:51:51;;;;;;;4.27;2.13;;;;;;;16.68;100.00;100645.53;12180847;19;20041;-79
2023/09/30 00:55:56;;;;;;;7.07;3.40;;;;;;;16.68;100.00;100647.50;12164198;19;19995;-78
2023/09/30 00:59:59;;;;;;;8.60;3.55;;;;;;;16.66;100.00;100653.34;12178443;19;20010;-79
2023/09/30 01:04:01;;;;;;;6.78;3.78;;;;;;;16.66;100.00;100658.91;12180422;19;20007;-81
2023/09/30 01:08:05;;;;;;;11.80;4.30;;;;;;;16.69;100.00;100646.41;12165428;19;20007;-79
2023/09/30 01:12:08;;;;;;;7.32;3.58;;;;;;;16.73;100.00;100653.94;12182798;19;20015;-81
2023/09/30 01:16:11;;;;;;;9.63;4.47;;;;;;;16.72;100.00;100645.88;12167647;19;20023;-80
2023/09/30 01:20:16;;;;;;;8.85;4.32;;;;;;;16.70;100.00;100657.25;12181708;19;20102;-81
2023/09/30 01:24:18;;;;;;;9.63;3.92;;;;;;;16.69;100.00;100641.66;12189436;19;20007;-81
2023/09/30 01:28:20;;;;;;;11.80;4.07;;;;;;;16.69;100.00;100638.88;12166541;19;20010;-81
2023/09/30 01:32:22;;;;;;;11.50;4.07;;;;;;;16.72;100.00;100652.25;12189494;19;20749;-80
2023/09/30 01:36:23;;;;;;;8.32;4.03;;;;;;;16.75;100.00;100657.28;12191688;19;20011;-81
2023/09/30 01:40:26;;;;;;;8.27;4.13;;;;;;;16.69;100.00;100658.38;12168824;19;20024;-82
2023/09/30 01:44:29;;;;;;;9.90;4.28;;;;;;;16.61;100.00;100662.50;12190236;19;20011;-80
2023/09/30 01:48:31;;;;;;;7.63;4.63;;;;;;;16.59;100.00;100659.13;12190825;19;20023;-81
2023/09/30 01:52:33;;;;;;;7.82;3.95;;;;;;;16.57;100.00;100660.53;12170225;19;20033;-80
2023/09/30 01:56:35;;;;;;;5.43;3.42;;;;;;;16.59;100.00;100659.13;12183971;19;20006;-81
2023/09/30 02:00:36;;;;;;;9.02;4.20;;;;;;;16.63;100.00;100665.00;12191651;19;20132;-81
2023/09/30 02:04:38;;;;;;;10.03;4.07;;;;;;;16.66;100.00;100658.91;12170940;19;20070;-80
2023/09/30 02:08:41;;;;;;;6.35;3.55;;;;;;;16.67;100.00;100641.09;12181491;19;20006;-81
2023/09/30 02:12:43;;;;;;;;;;;;;;;16.68;100.00;100639.16;12180415;19;20093;-80
2023/09/30 02:16:46;;;;;;;10.25;3.88;;;;;;;16.67;100.00;100632.75;12165313;19;19915;-80
2023/09/30 02:20:50;;;;;;;9.23;3.97;;;;;;;16.67;100.00;100645.81;12185500;19;20006;-80
2023/09/30 02:24:52;;;;;;;13.45;4.15;;;;;;;16.64;100.00;100650.81;12191485;19;20019;-81
2023/09/30 02:28:53;;;;;;;8.90;3.65;;;;;;;16.63;100.00;100662.22;12150292;19;20011;-82
2023/09/30 02:32:56;;;;;;;9.23;3.70;;;;;;;16.64;100.00;100670.28;12189695;19;20014;-80
2023/09/30 02:37:00;;;;;;;9.20;3.85;;;;;;;16.61;100.00;100667.22;12177601;19;20095;-81
2023/09/30 02:41:04;;;;;;;10.57;3.78;;;;;;;16.61;100.00;100673.63;12180862;19;20006;-81
2023/09/30 02:45:07;;;;;;;8.05;3.58;;;;;;;16.62;100.00;100680.00;12210595;19;20010;-81
2023/09/30 02:49:10;;;;;;;11.00;3.83;;;;;;;16.61;100.00;100673.63;12176483;19;20368;-81
2023/09/30 02:53:15;;;;;;;9.05;3.65;;;;;;;16.57;100.00;100678.06;12201051;19;20037;-79
2023/09/30 02:57:17;;;;;;;7.97;3.50;;;;;;;16.59;100.00;100694.47;12196528;19;20017;-80
2023/09/30 03:01:20;;;;;;;8.75;3.42;;;;;;;16.53;100.00;100703.88;12170164;19;20011;-80
2023/09/30 03:05:23;;;;;;;7.82;3.15;;;;;;;16.53;100.00;100715.84;12191134;19;20003;-81
2023/09/30 03:09:26;;;;;;;7.15;3.10;;;;;;;16.51;100.00;100700.53;12195266;19;20030;-81
2023/09/30 03:13:28;;;;;;;10.48;3.55;;;;;;;16.53;100.00;100701.94;12172127;19;20816;-79
2023/09/30 03:17:31;;;;;;;9.55;3.38;;;;;;;16.50;100.00;100715.56;12194243;19;20047;-80
2023/09/30 03:21:37;;;;;;;9.15;3.78;;;;;;;16.40;100.00;100694.06;12193660;19;20013;-79
2023/09/30 03:25:39;;;;;;;8.07;3.67;;;;;;;16.27;100.00;100684.25;12170725;19;20007;-81
2023/09/30 03:29:41;;;;;;;12.55;3.25;;;;;;;16.17;100.00;100681.38;12195382;19;20022;-81
2023/09/30 03:33:42;;;;;;;7.60;3.72;;;;;;;16.00;100.00;100677.88;12195132;19;20378;-80
2023/09/30 03:37:45;;;;;;;5.88;3.00;;;;;;;15.82;100.00;100709.69;12171203;19;20025;-80
2023/09/30 03:41:47;;;;;;;9.40;3.30;;;;;;;15.61;100.00;100701.09;12189067;19;20472;-80
2023/09/30 03:45:50;;;;;;;9.10;3.70;;;;;;;15.43;100.00;100718.13;12199692;19;20831;-79
2023/09/30 03:49:53;;;;;;;7.68;2.97;;;;;;;15.30;100.00;100724.09;12187108;19;20010;-80
2023/09/30 03:53:55;;;;;;;15.73;6.65;;;;;;;15.16;100.00;100726.41;12209719;19;20002;-80
2023/09/30 03:57:58;;;;;;;7.47;3.63;;;;;;;15.05;100.00;100700.47;12198651;19;20037;-80
2023/09/30 04:02:01;;;;;;;7.83;3.40;;;;;;;14.94;100.00;100727.25;12177111;19;20410;-81
2023/09/30 04:06:03;;;;;;;9.38;3.22;;;;;;;14.83;100.00;100728.19;12194824;19;20014;-80
2023/09/30 04:10:05;;;;;;;8.93;3.17;;;;;;;14.75;100.00;100728.63;12194468;19;20579;-81
2023/09/30 04:14:07;;;;;;;14.00;3.58;;;;;;;14.67;100.00;100731.84;12175806;19;20006;-81
2023/09/30 04:18:11;;;;;;;8.40;3.35;;;;;;;14.63;100.00;100725.94;12193413;19;20015;-81
2023/09/30 04:22:13;;;;;;;14.40;3.35;;;;;;;14.58;100.00;100721.19;12171149;19;20357;-80
2023/09/30 04:26:15;;;;;;;9.25;3.53;;;;;;;14.59;100.00;100731.16;12190889;19;20003;-80
2023/09/30 04:30:18;;;;;;;9.00;3.55;;;;;;;14.60;100.00;100726.44;12190937;19;20007;-80
2023/09/30 04:34:19;;;;;;;11.32;3.53;;;;;;;14.59;100.00;100738.66;12169932;19;20473;-81
2023/09/30 04:38:21;;;;;;;7.55;3.28;;;;;;;14.54;100.00;100747.72;12188912;19;20003;-81
2023/09/30 04:42:25;;;;;;;13.25;3.72;;;;;;;14.56;100.00;100751.09;12191550;19;20406;-79
2023/09/30 04:46:27;;;;;;;13.40;3.80;;;;;;;14.54;100.00;100750.50;12164197;19;20012;-80
2023/09/30 04:50:30;;;;;;;10.38;3.38;;;;;;;14.47;100.00;100741.50;12184644;19;20018;-81
2023/09/30 04:54:32;;;;;;;12.90;3.72;;;;;;;14.39;100.00;100744.69;12181226;19;20055;-79
2023/09/30 04:58:33;;;;;;;11.00;3.90;;;;;;;14.32;100.00;100732.94;12163612;19;20002;-81
2023/09/30 05:02:36;;;;;;;10.73;3.45;;;;;;;14.23;100.00;100737.22;12193460;19;20024;-81
2023/09/30 05:06:37;;;;;;;10.02;3.78;;;;;;;14.19;100.00;100747.09;12188213;19;20018;-82
2023/09/30 05:10:39;;;;;;;11.20;3.38;;;;;;;14.12;100.00;100742.56;12167232;19;20434;-81
2023/09/30 05:14:41;;;;;;;11.88;3.42;;;;;;;14.06;100.00;100748.28;12192628;19;20056;-80
2023/09/30 05:18:48;;;;;;;8.98;4.00;;;;;;;14.02;100.00;100761.81;12188669;19;20414;-79
2023/09/30 05:22:50;;;;;;;16.65;4.85;;;;;;;13.96;100.00;100762.81;12164670;19;20013;-80
2023/09/30 05:26:52;;;;;;;11.93;3.83;;;;;;;13.95;100.00;100763.03;12187283;19;20031;-81
2023/09/30 05:30:54;;;;;;;14.00;4.15;;;;;;;13.94;100.00;100764.13;12179841;19;20016;-78
2023/09/30 05:34:57;;;;;;;;;;;;;;;13.87;100.00;100761.53;12163844;19;20524;-78
2023/09/30 05:39:00;;;;;;;11.02;3.63;;;;;;;13.88;100.00;100754.88;12180379;19;19921;-80
2023/09/30 05:43:02;;;;;;;12.40;4.43;;;;;;;13.87;100.00;100756.81;12192787;19;20010;-78
2023/09/30 05:47:05;;;;;;;15.43;4.95;;;;;;;13.87;100.00;100759.59;12168460;19;20006;-78
2023/09/30 05:51:07;;;;;;;8.73;4.05;;;;;;;13.89;100.00;100754.66;12186181;19;20006;-80
2023/09/30 05:55:09;;;;;;;8.45;3.80;;;;;;;13.92;100.00;100764.41;12184493;19;20007;-78
2023/09/30 05:59:11;;;;;;;10.82;4.10;;;;;;;14.00;100.00;100772.28;12178373;19;20009;-79
2023/09/30 06:03:13;;;;;;;10.23;4.18;;;;;;;14.17;100.00;100782.56;12214560;19;20007;-82
2023/09/30 06:07:15;;;;;;;6.20;3.53;;;;;;;14.33;100.00;100779.78;12209780;19;20002;-80
2023/09/30 06:11:19;;;;;;;11.57;3.90;;;;;;;14.46;100.00;100781.41;12174328;19;20024;-79
2023/09/30 06:15:21;;;;;;;14.98;4.63;;;;;;;14.55;100.00;100779.94;12191744;19;20015;-80
2023/09/30 06:19:25;;;;;;;12.15;4.45;;;;;;;14.58;100.00;100776.66;12180984;19;20743;-82
2023/09/30 06:23:29;;;;;;;13.00;3.95;;;;;;;14.57;100.00;100774.97;12223315;19;20400;-80
2023/09/30 06:27:31;;;;;;;11.50;3.67;;;;;;;14.56;100.00;100784.38;12226938;19;20006;-80
2023/09/30 06:31:33;;;;;;;13.65;4.97;;;;;;;14.54;100.00;100792.09;12204221;19;20019;-79
2023/09/30 06:35:39;;;;;;;12.48;4.95;;;;;;;14.57;100.00;100799.94;12208472;19;20006;-80
2023/09/30 06:39:41;;;;;;;12.32;4.28;;;;;;;14.68;100.00;100808.41;12203558;19;20022;-81
2023/09/30 06:43:43;;;;;;;11.68;4.22;;;;;;;14.94;100.00;100801.34;12189723;19;20023;-81
2023/09/30 06:47:45;;;;;;;10.75;4.82;;;;;;;15.16;100.00;100804.13;12206256;19;20015;-79
2023/09/30 06:51:47;;;;;;;9.23;4.00;;;;;;;15.32;100.00;100814.38;12192672;19;20005;-80
2023/09/30 06:55:51;;;;;;;16.00;5.22;;;;;;;15.43;100.00;100802.28;12188415;19;20007;-80
2023/09/30 06:59:55;;;;;;;10.27;3.65;;;;;;;15.47;100.00;100803.47;12204689;19;21174;-80
2023/09/30 07:03:57;;;;;;;11.48;4.15;;;;;;;15.50;100.00;100814.06;12210532;19;20019;-80
2023/09/30 07:07:59;;;;;;;11.60;4.57;;;;;;;15.48;100.00;100824.56;12186796;19;20017;-79
2023/09/30 07:12:00;;;;;;;10.57;4.30;;;;;;;15.47;100.00;100831.25;12203671;19;20006;-80
2023/09/30 07:16:03;;;;;;;11.80;4.32;;;;;;;15.53;100.00;100840.50;12205463;19;20018;-80
2023/09/30 07:20:05;;;;;;;8.30;3.75;;;;;;;15.63;100.00;100848.94;12188386;19;20335;-79
2023/09/30 07:24:07;;;;;;;;;;;;;;;15.75;100.00;100842.44;12210020;19;20034;-80
2023/09/30 07:28:11;;;;;;;12.40;4.13;;;;;;;15.87;100.00;100832.03;12206653;19;19918;-79
2023/09/30 07:32:13;;;;;;;14.15;4.80;;;;;;;16.01;100.00;100826.91;12181619;19;20003;-79
2023/09/30 07:36:15;;;;;;;13.80;4.53;;;;;;;16.15;100.00;100836.50;12208122;19;20014;-80
2023/09/30 07:40:17;;;;;;;12.80;4.80;;;;;;;16.32;100.00;100839.19;12205200;19;20010;-80
2023/09/30 07:44:19;;;;;;;11.13;5.07;;;;;;;16.49;100.00;100836.28;12183821;19;20023;-80
2023/09/30 07:48:21;;;;;;;8.75;4.25;;;;;;;16.64;100.00;100847.56;12199711;19;20007;-77
2023/09/30 07:52:22;;;;;;;10.70;4.45;;;;;;;16.79;100.00;100832.97;12180385;19;20493;-80
2023/09/30 07:56:25;;;;;;;13.85;4.53;;;;;;;16.91;100.00;100816.06;12207462;19;20003;-80
2023/09/30 08:00:26;;;;;;;14.93;4.65;;;;;;;17.02;100.00;100817.81;12205547;19;20085;-80
2023/09/30 08:04:29;;;;;;;8.32;4.43;;;;;;;17.19;100.00;100823.19;12185762;19;20042;-80
2023/09/30 08:08:31;;;;;;;14.65;5.68;;;;;;;17.34;100.00;100840.03;12198218;19;20010;-80
2023/09/30 08:12:34;;;;;;;10.40;4.13;;;;;;;17.52;100.00;100833.16;12198898;19;20354;-80
2023/09/30 08:16:36;;;;;;;13.77;4.30;;;;;;;17.71;100.00;100839.09;12178406;19;20011;-81
2023/09/30 08:20:38;;;;;;;12.75;4.47;;;;;;;17.84;100.00;100826.59;12200038;19;20093;-80
2023/09/30 08:24:40;;;;;;;11.02;4.72;;;;;;;17.97;100.00;100831.69;12200849;19;20010;-79
2023/09/30 08:28:42;;;;;;;9.98;4.10;;;;;;;18.12;100.00;100831.72;12180410;19;20030;-80
2023/09/30 08:32:46;;;;;;;11.53;3.93;;;;;;;18.21;100.00;100851.56;12209584;19;21189;-80
2023/09/30 08:36:48;;;;;;;9.88;4.22;;;;;;;18.36;100.00;100840.41;12209247;19;20461;-80
2023/09/30 08:40:52;;;;;;;13.40;3.80;;;;;;;18.46;100.00;100842.38;12183703;19;20385;-80
2023/09/30 08:44:57;;;;;;;13.90;5.28;;;;;;;18.43;100.00;100854.09;12201754;19;20108;-80
2023/09/30 08:49:03;;;;;;;11.57;4.53;;;;;;;18.62;98.38;100873.91;12200211;19;20066;-81
2023/09/30 08:53:06;;;;;;;9.15;4.00;;;;;;;18.62;98.13;100872.00;12182900;19;20050;-81
2023/09/30 08:57:09;;;;;;;;;;;;;;;18.65;97.41;100856.66;12205513;19;20372;-81
2023/09/30 09:01:12;;;;;;;11.75;3.95;;;;;;;18.75;96.21;100865.03;12199525;19;19911;-80
2023/09/30 09:05:15;;;;;;;9.13;3.95;;;;;;;18.95;94.41;100868.94;12189304;19;19999;-80
2023/09/30 09:09:19;;;;;;;8.68;3.28;;;;;;;19.21;91.28;100864.16;12215067;19;20123;-80
2023/09/30 09:13:21;;;;;;;10.20;4.07;;;;;;;19.33;88.66;100861.91;12206733;19;20010;-81
2023/09/30 09:17:40;;;;;;;11.60;3.55;;;;;;;19.39;86.87;100855.19;12183438;19;20003;-81
2023/09/30 09:21:57;;;;;;;11.65;3.80;;;;;;;19.47;85.55;100856.56;12198925;19;20018;-81
2023/09/30 09:25:59;;;;;;;12.63;4.15;;;;;;;19.71;83.80;100873.56;12179526;19;19999;-81
2023/09/30 09:30:21;;;;;;;10.17;3.83;;;;;;;19.92;82.43;100866.78;12196966;19;20062;-81
2023/09/30 09:34:24;;;;;;;7.03;2.95;;;;;;;19.95;82.55;100860.59;12194307;19;20556;-81
2023/09/30 09:38:26;;;;;;;11.13;4.03;;;;;;;20.04;79.46;100870.06;12180492;19;20014;-80
2023/09/30 09:42:32;;;;;;;11.03;3.50;;;;;;;19.98;77.07;100874.00;12195630;19;20002;-80
2023/09/30 09:46:38;;;;;;;10.60;3.20;;;;;;;20.04;76.01;100874.84;12189460;19;20006;-81
2023/09/30 09:50:42;;;;;;;7.23;3.20;;;;;;;20.06;73.98;100874.56;12193448;19;20014;-81
2023/09/30 09:54:46;;;;;;;8.95;2.95;;;;;;;20.21;74.07;100886.50;12233448;19;20007;-81
2023/09/30 09:58:49;;;;;;;6.82;2.80;;;;;;;20.27;69.51;100876.94;12208016;19;19999;-79
2023/09/30 10:02:52;;;;;;;9.55;2.88;;;;;;;20.42;69.09;100864.00;12203209;19;20066;-80
2023/09/30 10:06:55;;;;;;;;;;;;;;;20.48;67.77;100869.25;12199583;19;20032;-81
2023/09/30 10:10:59;;;;;;;9.35;2.85;;;;;;;20.70;67.13;100860.47;12177385;19;20364;-79
2023/09/30 10:15:24;;;;;;;8.45;3.58;;;;;;;20.73;64.48;100844.19;12201227;19;19999;-80
2023/09/30 10:19:29;;;;;;;10.00;4.15;;;;;;;20.69;65.61;100841.97;12201577;19;20569;-81
2023/09/30 10:23:33;;;;;;;8.63;3.38;;;;;;;20.61;64.05;100827.75;12175937;19;20020;-79
2023/09/30 10:27:37;;;;;;;9.80;4.45;;;;;;;20.69;65.66;100821.53;12192481;19;20010;-80
2023/09/30 10:31:51;;;;;;;7.15;3.40;;;;;;;20.74;63.32;100818.69;12172567;19;20600;-79
2023/09/30 10:35:53;;;;;;;10.23;3.90;;;;;;;20.90;63.86;100831.41;12189598;19;20018;-80
2023/09/30 10:39:58;;;;;;;7.47;3.33;;;;;;;21.05;62.88;100812.78;12195194;19;20017;-81
2023/09/30 10:44:28;;;;;;;8.68;3.40;;;;;;;21.00;59.80;100827.72;12178064;19;20007;-80
2023/09/30 10:48:41;;;;;;;9.82;3.55;;;;;;;20.93;60.23;100832.78;12199921;19;20091;-81
2023/09/30 10:52:43;;;;;;;11.35;3.60;;;;;;;20.94;58.15;100826.09;12176991;19;20706;-79
2023/09/30 10:56:45;;;;;;;7.80;3.30;;;;;;;21.09;58.96;100813.88;12201088;19;20007;-81
2023/09/30 11:00:56;;;;;;;7.10;3.50;;;;;;;21.21;57.36;100816.25;12203847;19;20013;-80
2023/09/30 11:05:08;;;;;;;9.68;3.25;;;;;;;21.35;57.60;100812.47;12179834;19;20075;-79
2023/09/30 11:09:19;;;;;;;7.90;2.92;;;;;;;21.57;56.74;100826.00;12201030;19;20853;-81
2023/09/30 11:13:21;;;;;;;9.32;3.83;;;;;;;21.60;53.32;100813.34;12202139;19;20007;-80
2023/09/30 11:17:23;;;;;;;8.60;3.00;;;;;;;21.37;54.36;100817.81;12176661;19;20006;-78
2023/09/30 11:21:25;;;;;;;7.07;3.08;;;;;;;21.39;54.37;100818.38;12197419;19;20366;-80
2023/09/30 11:25:27;;;;;;;8.27;3.10;;;;;;;21.49;54.89;100823.00;12198180;19;20027;-80
2023/09/30 11:29:28;;;;;;;9.63;3.43;;;;;;;21.70;54.24;100813.19;12180048;19;20465;-80
2023/09/30 11:33:30;;;;;;;7.77;3.33;;;;;;;22.02;53.87;100825.69;12194798;19;20010;-80
2023/09/30 11:37:33;;;;;;;10.50;3.83;;;;;;;22.04;52.43;100821.44;12196487;19;20006;-80
2023/09/30 11:41:41;;;;;;;10.55;3.30;;;;;;;22.39;51.98;100810.00;12176921;19;20016;-80
2023/09/30 11:45:43;;;;;;;11.00;4.55;;;;;;;23.02;50.32;100819.94;12196300;19;20006;-81
2023/09/30 11:49:53;;;;;;;10.32;4.10;;;;;;;23.68;49.32;100810.22;12178065;19;20042;-80
2023/09/30 11:53:58;;;;;;;9.45;3.75;;;;;;;24.19;48.84;100808.28;12199488;19;20087;-82
2023/09/30 11:58:00;;;;;;;8.65;3.22;;;;;;;24.56;46.28;100807.94;12197458;19;20002;-80
2023/09/30 12:02:03;;;;;;;8.15;4.22;;;;;;;25.10;46.06;100809.94;12184986;19;20023;-80
2023/09/30 12:06:16;;;;;;;7.68;3.28;;;;;;;25.43;43.19;100808.50;12191852;19;20370;-81
2023/09/30 12:10:17;;;;;;;7.68;3.28;;;;;;;25.44;42.55;100807.34;12193271;19;20404;-81
2023/09/30 12:14:22;;;;;;;10.30;3.13;;;;;;;25.63;40.83;100800.59;12171368;19;20047;-81
2023/09/30 12:18:24;;;;;;;6.80;2.90;;;;;;;25.78;38.43;100786.00;12194753;19;20497;-81
2023/09/30 12:22:26;;;;;;;5.38;2.22;;;;;;;26.09;38.95;100782.28;12199887;19;20006;-80
2023/09/30 12:26:30;;;;;;;6.25;3.15;;;;;;;26.33;36.90;100785.44;12169970;19;20016;-80
2023/09/30 12:30:32;;;;;;;8.02;3.35;;;;;;;26.34;36.05;100781.44;12192889;19;20055;-81
2023/09/30 12:34:34;;;;;;;;;;;;;;;26.35;37.65;100774.66;12205196;19;20018;-81
2023/09/30 12:38:35;;;;;;;5.10;2.90;;;;;;;26.73;35.36;100767.47;12180587;19;19922;-80
2023/09/30 12:42:37;;;;;;;7.28;2.63;;;;;;;26.95;35.79;100755.94;12209346;19;20002;-80
2023/09/30 12:46:39;;;;;;;;;;;;;;;26.95;35.38;100757.94;12225353;19;20028;-81
2023/09/30 12:50:41;;;;;;;7.13;3.55;;;;;;;27.28;35.81;100758.19;12205643;19;20345;-81
2023/09/30 12:54:43;;;;;;;6.50;3.03;;;;;;;27.39;35.30;100748.13;12220643;19;20010;-81
2023/09/30 12:58:45;;;;;;;;;;;;;;;27.26;35.81;100754.84;12185176;19;20014;-82
2023/09/30 13:02:48;;;;;;;7.85;3.10;;;;;;;26.58;35.95;100760.34;12204077;19;19907;-81
2023/09/30 13:06:50;;;;;;;10.10;3.80;;;;;;;25.48;37.69;100764.34;12191807;19;20033;-81
2023/09/30 13:10:52;;;;;;;7.32;3.80;;;;;;;24.64;38.28;100766.06;12177463;19;20028;-81
2023/09/30 13:14:56;;;;;;;6.53;2.78;;;;;;;24.21;38.37;100760.91;12196685;19;20003;-79
2023/09/30 13:18:57;;;;;;;7.47;3.10;;;;;;;24.11;38.51;100760.00;12190782;19;20014;-78
2023/09/30 13:23:00;;;;;;;7.30;3.30;;;;;;;23.73;39.55;100747.38;12175924;19;19995;-79
2023/09/30 13:27:02;;;;;;;;;;;;;;;23.39;40.50;100746.66;12193856;19;20014;-81
2023/09/30 13:31:05;;;;;;;11.88;2.88;;;;;;;22.91;40.74;100734.97;12188197;19;19938;-80
2023/09/30 13:35:07;;;;;;;9.32;3.38;;;;;;;22.86;41.95;100735.88;12169268;19;20014;-79
2023/09/30 13:39:13;;;;;;;7.85;3.08;;;;;;;22.95;41.95;100736.03;12186715;19;20093;-80
2023/09/30 13:43:15;;;;;;;10.10;4.25;;;;;;;22.93;42.70;100739.13;12191405;19;20049;-80
2023/09/30 13:47:16;;;;;;;9.47;4.20;;;;;;;22.82;43.24;100731.19;12164177;19;20002;-79
2023/09/30 13:51:18;;;;;;;10.33;3.90;;;;;;;22.57;44.04;100740.91;12192499;19;20002;-80
2023/09/30 13:55:20;;;;;;;6.70;3.33;;;;;;;22.28;44.29;100723.16;12195247;19;20043;-80
2023/09/30 13:59:22;;;;;;;7.30;3.47;;;;;;;22.13;44.67;100726.19;12173785;19;20006;-79
2023/09/30 14:03:24;;;;;;;8.68;3.83;;;;;;;22.16;45.33;100725.56;12197313;19;20018;-80
2023/09/30 14:07:27;;;;;;;8.43;3.30;;;;;;;22.17;46.04;100727.25;12183926;19;20447;-79
2023/09/30 14:11:30;;;;;;;7.90;3.38;;;;;;;22.11;46.07;100716.38;12159713;19;20014;-79
2023/09/30 14:15:32;;;;;;;;;;;;;;;21.91;47.32;100720.34;12185029;19;20007;-80
2023/09/30 14:19:36;;;;;;;8.93;3.20;;;;;;;21.77;45.94;100720.25;12189252;19;19923;-79
2023/09/30 14:23:38;;;;;;;10.23;3.75;;;;;;;21.69;46.55;100713.38;12171579;19;20017;-79
2023/09/30 14:27:40;;;;;;;;;;;;;;;21.52;46.88;100704.63;12192738;19;20026;-79
2023/09/30 14:31:42;;;;;;;9.13;3.42;;;;;;;21.48;46.79;100697.97;12176804;19;20251;-80
2023/09/30 14:35:47;;;;;;;7.13;3.67;;;;;;;21.49;46.68;100682.81;12190782;19;20565;-80
2023/09/30 14:39:51;;;;;;;8.02;3.47;;;;;;;21.39;47.54;100679.00;12190379;19;20022;-80
2023/09/30 14:43:53;;;;;;;7.77;3.47;;;;;;;21.36;47.23;100678.78;12175875;19;20007;-80
2023/09/30 14:47:55;;;;;;;9.70;3.93;;;;;;;21.39;47.72;100686.59;12196386;19;20014;-79
2023/09/30 14:51:57;;;;;;;6.13;3.00;;;;;;;21.39;47.27;100686.59;12195020;19;20534;-79
2023/09/30 14:55:59;;;;;;;6.82;3.50;;;;;;;21.28;47.55;100685.84;12177123;19;20738;-80
2023/09/30 15:00:03;;;;;;;7.72;3.40;;;;;;;21.10;47.77;100681.03;12199618;19;20018;-80
2023/09/30 15:04:07;;;;;;;7.75;3.30;;;;;;;20.96;47.94;100675.31;12209000;19;20006;-80
2023/09/30 15:08:11;;;;;;;7.80;3.25;;;;;;;20.85;48.94;100679.34;12181679;19;20378;-79
2023/09/30 15:12:13;;;;;;;10.30;3.40;;;;;;;20.89;50.71;100675.69;12208815;19;20010;-79
2023/09/30 15:16:19;;;;;;;5.83;3.20;;;;;;;20.87;53.58;100677.09;12206579;19;20006;-80
2023/09/30 15:20:21;;;;;;;8.95;3.70;;;;;;;20.82;55.00;100678.00;12186634;19;20034;-79
2023/09/30 15:24:23;;;;;;;9.33;3.63;;;;;;;20.75;57.13;100680.31;12207338;19;20025;-80
2023/09/30 15:28:25;;;;;;;6.43;2.80;;;;;;;20.68;58.66;100671.44;12205702;19;20006;-80
2023/09/30 15:32:27;;;;;;;8.00;3.10;;;;;;;20.62;59.34;100670.66;12181001;19;20484;-80
2023/09/30 15:36:29;;;;;;;6.93;3.28;;;;;;;20.59;60.49;100670.41;12201311;19;20017;-80
2023/09/30 15:40:32;;;;;;;7.50;3.37;;;;;;;20.45;61.80;100671.06;12206970;19;20015;-79
2023/09/30 15:44:34;;;;;;;8.30;3.90;;;;;;;20.37;63.28;100668.06;12185855;19;20494;-80
2023/09/30 15:48:35;;;;;;;9.47;4.03;;;;;;;20.23;63.93;100676.34;12205787;19;20038;-80
2023/09/30 15:52:38;;;;;;;6.27;3.20;;;;;;;20.05;65.45;100680.69;12201274;19;20010;-79
2023/09/30 15:56:41;;;;;;;6.85;3.42;;;;;;;19.86;66.87;100685.28;12177880;19;20014;-79
2023/09/30 16:00:56;;;;;;;10.45;3.15;;;;;;;19.65;67.76;100684.59;12201570;19;20006;-80
2023/09/30 16:04:59;;;;;;;6.78;3.70;;;;;;;19.44;69.36;100690.25;12179028;19;20009;-80
2023/09/30 16:09:00;;;;;;;8.67;3.93;;;;;;;19.25;70.72;100689.25;12196590;19;20054;-80
2023/09/30 16:13:06;;;;;;;6.93;3.20;;;;;;;19.05;72.27;100692.97;12202471;19;20002;-80
2023/09/30 16:17:08;;;;;;;8.38;3.80;;;;;;;18.83;73.64;100683.00;12180955;19;20378;-81
2023/09/30 16:21:10;;;;;;;8.53;4.70;;;;;;;18.66;74.31;100694.44;12208024;19;20089;-80
2023/09/30 16:25:11;;;;;;;9.47;4.23;;;;;;;18.50;75.09;100692.81;12208591;19;20011;-80
2023/09/30 16:29:13;;;;;;;9.50;4.00;;;;;;;18.38;76.55;100706.19;12186192;19;20014;-80
2023/09/30 16:33:24;;;;;;;9.52;4.10;;;;;;;18.21;79.42;100700.91;12206962;19;20029;-81
2023/09/30 16:37:26;;;;;;;5.85;3.28;;;;;;;18.01;80.37;100690.56;12204985;19;20015;-81
2023/09/30 16:41:28;;;;;;;10.52;3.90;;;;;;;17.88;81.48;100682.78;12188367;19;20007;-81
2023/09/30 16:45:29;;;;;;;7.90;3.78;;;;;;;17.75;82.66;100679.34;12206658;19;20007;-80
2023/09/30 16:49:31;;;;;;;9.47;3.80;;;;;;;17.64;83.81;100674.03;12204413;19;20003;-80
2023/09/30 16:53:34;;;;;;;9.57;3.53;;;;;;;17.50;83.17;100662.59;12185611;19;20007;-80
2023/09/30 16:57:36;;;;;;;8.25;3.53;;;;;;;17.37;83.76;100679.81;12208812;19;20010;-81
2023/09/30 17:01:38;;;;;;;8.40;3.72;;;;;;;17.21;84.50;100677.00;12209743;19;20046;-80
2023/09/30 17:05:41;;;;;;;6.07;3.90;;;;;;;17.07;84.99;100675.81;12187652;19;20014;-79
2023/09/30 17:09:43;;;;;;;5.15;2.80;;;;;;;16.93;85.87;100669.94;12201122;19;20463;-80
2023/09/30 17:13:45;;;;;;;9.18;3.90;;;;;;;16.82;86.90;100676.53;12205108;19;19998;-80
2023/09/30 17:17:46;;;;;;;7.20;3.80;;;;;;;16.73;88.32;100684.53;12184306;19;20006;-80
2023/09/30 17:21:48;;;;;;;9.30;4.32;;;;;;;16.63;90.17;100679.75;12206273;19;20002;-80
2023/09/30 17:25:50;;;;;;;9.82;3.92;;;;;;;16.53;92.36;100693.59;12195124;19;20010;-80
2023/09/30 17:29:52;;;;;;;8.45;4.32;;;;;;;16.47;93.47;100693.81;12191397;19;20002;-81
2023/09/30 17:33:54;;;;;;;12.52;5.53;;;;;;;16.39;94.37;100696.00;12227529;19;20011;-81
2023/09/30 17:37:55;;;;;;;8.00;3.80;;;;;;;16.33;95.29;100696.22;12173202;19;20020;-79
2023/09/30 17:41:58;;;;;;;7.47;3.90;;;;;;;16.29;95.32;100695.09;12203898;19;20006;-80
2023/09/30 17:46:11;;;;;;;8.05;3.60;;;;;;;16.26;95.69;100702.00;12194348;19;20067;-80
2023/09/30 17:50:13;;;;;;;6.57;3.50;;;;;;;16.20;95.17;100699.47;12169096;19;20089;-80
2023/09/30 17:54:15;;;;;;;10.53;4.00;;;;;;;16.14;95.15;100704.16;12206541;19;19998;-79
2023/09/30 17:58:17;;;;;;;6.20;3.22;;;;;;;16.11;94.46;100713.03;12213728;19;20007;-80
2023/09/30 18:02:19;;;;;;;8.25;3.00;;;;;;;16.05;93.78;100720.47;12195962;19;20019;-81
2023/09/30 18:06:21;;;;;;;8.98;3.40;;;;;;;15.99;93.79;100715.13;12210943;19;20362;-80
2023/09/30 18:10:22;;;;;;;6.63;2.90;;;;;;;15.94;93.76;100716.78;12204566;19;20019;-79
2023/09/30 18:14:24;;;;;;;5.88;2.75;;;;;;;15.89;93.30;100711.16;12186882;19;20365;-80
2023/09/30 18:18:26;;;;;;;6.88;3.05;;;;;;;15.84;93.00;100721.38;12204318;19;20003;-79
2023/09/30 18:22:29;;;;;;;6.82;2.80;;;;;;;15.81;93.00;100714.41;12209704;19;20074;-79
2023/09/30 18:26:31;;;;;;;5.90;3.03;;;;;;;15.78;92.72;100712.16;12181944;19;20018;-80
2023/09/30 18:30:33;;;;;;;6.57;2.60;;;;;;;15.74;92.11;100724.91;12206289;19;20007;-79
2023/09/30 18:34:35;;;;;;;5.30;2.67;;;;;;;15.69;91.72;100728.47;12205945;19;20015;-80